sensor_id;sensor_type;location;lat;lon;timestamp;pressure;altitude;pressure_sealevel;temperature;humidity
34658;BME280;20865;43.312;27.152;2023-04-07T00:01:16;100246.38;;;14.35;34.83
34658;BME280;20865;43.312;27.152;2023-04-07T00:03:43;100249.01;;;14.37;35.33
34658;BME280;20865;43.312;27.152;2023-04-07T00:06:10;100248.72;;;14.33;35.26
34658;BME280;20865;43.312;27.152;2023-04-07T00:08:37;100247.37;;;14.33;35.49
34658;BME280;20865;43.312;27.152;2023-04-07T00:11:05;100247.47;;;14.31;35.73
34658;BME280;20865;43.312;27.152;2023-04-07T00:13:33;100249.81;;;14.28;36.56
34658;BME280;20865;43.312;27.152;2023-04-07T00:16:00;100253.39;;;14.19;37.13
34658;BME280;20865;43.312;27.152;2023-04-07T00:18:27;100249.83;;;14.18;37.64
34658;BME280;20865;43.312;27.152;2023-04-07T00:20:53;100249.58;;;14.14;37.64
34658;BME280;20865;43.312;27.152;2023-04-07T00:23:21;100249.41;;;14.09;37.48
34658;BME280;20865;43.312;27.152;2023-04-07T00:25:47;100244.05;;;13.98;37.58
34658;BME280;20865;43.312;27.152;2023-04-07T00:28:14;100242.48;;;14.03;37.88
34658;BME280;20865;43.312;27.152;2023-04-07T00:30:41;100242.14;;;14.00;37.94
34658;BME280;20865;43.312;27.152;2023-04-07T00:33:08;100246.25;;;13.99;37.92
34658;BME280;20865;43.312;27.152;2023-04-07T00:35:35;100249.47;;;13.97;38.45
34658;BME280;20865;43.312;27.152;2023-04-07T00:38:02;100255.39;;;13.95;38.26
34658;BME280;20865;43.312;27.152;2023-04-07T00:40:29;100246.00;;;13.95;38.34
34658;BME280;20865;43.312;27.152;2023-04-07T00:42:55;100250.68;;;13.90;38.50
34658;BME280;20865;43.312;27.152;2023-04-07T00:45:22;100253.37;;;13.90;38.67
34658;BME280;20865;43.312;27.152;2023-04-07T00:47:49;100252.71;;;13.85;38.62
34658;BME280;20865;43.312;27.152;2023-04-07T00:50:16;100257.66;;;13.83;38.82
34658;BME280;20865;43.312;27.152;2023-04-07T00:52:44;100254.58;;;13.82;38.76
34658;BME280;20865;43.312;27.152;2023-04-07T00:55:11;100252.28;;;13.83;39.08
34658;BME280;20865;43.312;27.152;2023-04-07T00:57:38;100259.08;;;13.82;39.35
34658;BME280;20865;43.312;27.152;2023-04-07T01:00:05;100254.71;;;13.79;39.41
34658;BME280;20865;43.312;27.152;2023-04-07T01:02:36;100254.71;;;13.79;39.53
34658;BME280;20865;43.312;27.152;2023-04-07T01:07:43;100253.38;;;13.79;39.46
34658;BME280;20865;43.312;27.152;2023-04-07T01:10:01;100256.61;;;13.77;39.33
34658;BME280;20865;43.312;27.152;2023-04-07T01:12:38;100262.38;;;13.78;39.55
34658;BME280;20865;43.312;27.152;2023-04-07T01:15:05;100263.58;;;13.71;39.64
34658;BME280;20865;43.312;27.152;2023-04-07T01:17:32;100266.74;;;13.71;39.88
34658;BME280;20865;43.312;27.152;2023-04-07T01:20:03;100260.95;;;13.70;39.64
34658;BME280;20865;43.312;27.152;2023-04-07T01:22:45;100260.08;;;13.69;39.79
34658;BME280;20865;43.312;27.152;2023-04-07T01:25:25;100254.05;;;13.74;38.95
34658;BME280;20865;43.312;27.152;2023-04-07T01:27:59;100256.14;;;13.78;38.17
34658;BME280;20865;43.312;27.152;2023-04-07T01:30:26;100255.92;;;13.82;37.35
34658;BME280;20865;43.312;27.152;2023-04-07T01:32:53;100250.63;;;13.81;37.08
34658;BME280;20865;43.312;27.152;2023-04-07T01:35:21;100254.05;;;13.85;36.79
34658;BME280;20865;43.312;27.152;2023-04-07T01:37:48;100254.45;;;13.86;36.40
34658;BME280;20865;43.312;27.152;2023-04-07T01:40:16;100248.39;;;13.91;36.23
34658;BME280;20865;43.312;27.152;2023-04-07T01:42:43;100255.05;;;13.92;35.77
34658;BME280;20865;43.312;27.152;2023-04-07T01:45:11;100246.78;;;13.97;35.72
34658;BME280;20865;43.312;27.152;2023-04-07T01:47:38;100246.25;;;13.99;35.42
34658;BME280;20865;43.312;27.152;2023-04-07T01:50:06;100251.54;;;14.00;35.68
34658;BME280;20865;43.312;27.152;2023-04-07T01:52:34;100247.59;;;13.99;35.04
34658;BME280;20865;43.312;27.152;2023-04-07T01:55:05;100247.47;;;14.02;35.45
34658;BME280;20865;43.312;27.152;2023-04-07T01:57:32;100243.87;;;14.01;35.34
34658;BME280;20865;43.312;27.152;2023-04-07T01:59:59;100256.30;;;14.04;35.39
34658;BME280;20865;43.312;27.152;2023-04-07T02:02:26;100245.90;;;14.06;35.47
34658;BME280;20865;43.312;27.152;2023-04-07T02:05:01;100247.72;;;14.06;35.81
34658;BME280;20865;43.312;27.152;2023-04-07T02:07:34;100253.14;;;14.04;36.04
34658;BME280;20865;43.312;27.152;2023-04-07T02:09:56;100247.59;;;14.09;35.98
34658;BME280;20865;43.312;27.152;2023-04-07T02:12:29;100248.11;;;14.07;35.54
34658;BME280;20865;43.312;27.152;2023-04-07T02:14:53;100249.06;;;14.06;35.26
34658;BME280;20865;43.312;27.152;2023-04-07T02:17:26;100257.12;;;14.06;35.05
34658;BME280;20865;43.312;27.152;2023-04-07T02:19:49;100254.91;;;14.05;34.97
34658;BME280;20865;43.312;27.152;2023-04-07T02:22:16;100257.39;;;14.00;34.80
34658;BME280;20865;43.312;27.152;2023-04-07T02:24:44;100254.34;;;14.08;34.68
34658;BME280;20865;43.312;27.152;2023-04-07T02:27:11;100255.35;;;14.05;34.36
34658;BME280;20865;43.312;27.152;2023-04-07T02:29:37;100258.52;;;14.04;34.11
34658;BME280;20865;43.312;27.152;2023-04-07T02:32:04;100259.47;;;14.03;34.04
34658;BME280;20865;43.312;27.152;2023-04-07T02:34:31;100257.59;;;14.05;33.93
34658;BME280;20865;43.312;27.152;2023-04-07T02:36:58;100256.39;;;14.02;33.59
34658;BME280;20865;43.312;27.152;2023-04-07T02:39:25;100265.36;;;14.01;33.93
34658;BME280;20865;43.312;27.152;2023-04-07T02:41:52;100267.86;;;14.06;34.51
34658;BME280;20865;43.312;27.152;2023-04-07T02:44:19;100260.20;;;14.07;34.57
34658;BME280;20865;43.312;27.152;2023-04-07T02:46:45;100262.84;;;14.09;34.37
34658;BME280;20865;43.312;27.152;2023-04-07T02:49:12;100265.09;;;14.08;34.25
34658;BME280;20865;43.312;27.152;2023-04-07T02:51:39;100263.75;;;14.08;34.61
34658;BME280;20865;43.312;27.152;2023-04-07T02:54:06;100266.44;;;14.08;34.26
34658;BME280;20865;43.312;27.152;2023-04-07T02:56:32;100266.44;;;14.08;33.98
34658;BME280;20865;43.312;27.152;2023-04-07T02:58:59;100270.08;;;14.06;33.86
34658;BME280;20865;43.312;27.152;2023-04-07T03:01:26;100266.52;;;14.06;34.02
34658;BME280;20865;43.312;27.152;2023-04-07T03:03:53;100271.03;;;14.05;34.03
34658;BME280;20865;43.312;27.152;2023-04-07T03:06:19;100274.45;;;14.09;34.57
34658;BME280;20865;43.312;27.152;2023-04-07T03:08:46;100276.40;;;14.05;34.64
34658;BME280;20865;43.312;27.152;2023-04-07T03:11:13;100276.53;;;14.02;34.58
34658;BME280;20865;43.312;27.152;2023-04-07T03:13:40;100275.11;;;13.94;35.11
34658;BME280;20865;43.312;27.152;2023-04-07T03:16:07;100270.55;;;13.96;35.05
34658;BME280;20865;43.312;27.152;2023-04-07T03:18:34;100267.05;;;13.94;35.30
34658;BME280;20865;43.312;27.152;2023-04-07T03:21:00;100267.14;;;13.92;35.79
34658;BME280;20865;43.312;27.152;2023-04-07T03:23:27;100272.51;;;13.92;36.17
34658;BME280;20865;43.312;27.152;2023-04-07T03:25:54;100274.45;;;13.89;36.11
34658;BME280;20865;43.312;27.152;2023-04-07T03:28:22;100281.83;;;13.83;36.42
34658;BME280;20865;43.312;27.152;2023-04-07T03:30:49;100281.56;;;13.79;36.52
34658;BME280;20865;43.312;27.152;2023-04-07T03:33:16;100287.53;;;13.76;36.27
34658;BME280;20865;43.312;27.152;2023-04-07T03:35:43;100285.53;;;13.71;36.54
34658;BME280;20865;43.312;27.152;2023-04-07T03:38:09;100294.06;;;13.70;36.78
34658;BME280;20865;43.312;27.152;2023-04-07T03:40:36;100296.13;;;13.64;36.85
34658;BME280;20865;43.312;27.152;2023-04-07T03:43:03;100302.50;;;13.61;37.13
34658;BME280;20865;43.312;27.152;2023-04-07T03:45:32;100298.67;;;13.56;37.73
34658;BME280;20865;43.312;27.152;2023-04-07T03:47:59;100304.69;;;13.51;37.53
34658;BME280;20865;43.312;27.152;2023-04-07T03:50:26;100303.42;;;13.50;37.72
34658;BME280;20865;43.312;27.152;2023-04-07T03:52:53;100308.36;;;13.49;37.61
34658;BME280;20865;43.312;27.152;2023-04-07T03:55:20;100309.04;;;13.44;37.72
34658;BME280;20865;43.312;27.152;2023-04-07T03:57:47;100315.59;;;13.37;37.84
34658;BME280;20865;43.312;27.152;2023-04-07T04:00:14;100309.53;;;13.31;37.67
34658;BME280;20865;43.312;27.152;2023-04-07T04:02:41;100310.12;;;13.28;37.96
34658;BME280;20865;43.312;27.152;2023-04-07T04:05:08;100307.52;;;13.26;37.98
34658;BME280;20865;43.312;27.152;2023-04-07T04:07:35;100309.86;;;13.24;38.06
34658;BME280;20865;43.312;27.152;2023-04-07T04:10:02;100326.34;;;13.25;38.37
34658;BME280;20865;43.312;27.152;2023-04-07T04:12:29;100324.18;;;13.23;38.78
34658;BME280;20865;43.312;27.152;2023-04-07T04:14:55;100335.38;;;13.22;38.97
34658;BME280;20865;43.312;27.152;2023-04-07T04:17:22;100327.85;;;13.20;38.86
34658;BME280;20865;43.312;27.152;2023-04-07T04:19:50;100331.52;;;13.18;38.53
34658;BME280;20865;43.312;27.152;2023-04-07T04:22:16;100341.97;;;13.14;39.02
34658;BME280;20865;43.312;27.152;2023-04-07T04:24:43;100334.00;;;13.12;39.05
34658;BME280;20865;43.312;27.152;2023-04-07T04:27:10;100339.88;;;13.10;38.89
34658;BME280;20865;43.312;27.152;2023-04-07T04:29:37;100343.39;;;13.12;39.19
34658;BME280;20865;43.312;27.152;2023-04-07T04:32:04;100345.25;;;13.10;38.80
34658;BME280;20865;43.312;27.152;2023-04-07T04:34:31;100345.20;;;13.11;38.84
34658;BME280;20865;43.312;27.152;2023-04-07T04:36:57;100349.70;;;13.11;38.71
34658;BME280;20865;43.312;27.152;2023-04-07T04:39:24;100349.86;;;13.06;38.68
34658;BME280;20865;43.312;27.152;2023-04-07T04:41:51;100347.02;;;13.11;38.68
34658;BME280;20865;43.312;27.152;2023-04-07T04:44:18;100357.08;;;13.16;39.07
34658;BME280;20865;43.312;27.152;2023-04-07T04:46:45;100357.83;;;13.20;38.65
34658;BME280;20865;43.312;27.152;2023-04-07T04:49:11;100355.07;;;13.21;38.93
34658;BME280;20865;43.312;27.152;2023-04-07T04:51:40;100358.14;;;13.24;38.97
34658;BME280;20865;43.312;27.152;2023-04-07T04:54:07;100355.03;;;13.23;38.92
34658;BME280;20865;43.312;27.152;2023-04-07T04:56:34;100365.28;;;13.23;38.77
34658;BME280;20865;43.312;27.152;2023-04-07T04:59:01;100362.05;;;13.27;38.75
34658;BME280;20865;43.312;27.152;2023-04-07T05:01:28;100367.05;;;13.24;38.71
34658;BME280;20865;43.312;27.152;2023-04-07T05:03:55;100382.28;;;13.24;38.60
34658;BME280;20865;43.312;27.152;2023-04-07T05:06:22;100370.17;;;13.25;38.24
34658;BME280;20865;43.312;27.152;2023-04-07T05:08:49;100367.53;;;13.24;38.09
34658;BME280;20865;43.312;27.152;2023-04-07T05:11:15;100369.74;;;13.24;38.07
34658;BME280;20865;43.312;27.152;2023-04-07T05:13:42;100378.03;;;13.30;37.97
34658;BME280;20865;43.312;27.152;2023-04-07T05:16:09;100384.73;;;13.30;37.93
34658;BME280;20865;43.312;27.152;2023-04-07T05:18:36;100380.98;;;13.34;37.90
34658;BME280;20865;43.312;27.152;2023-04-07T05:21:03;100379.87;;;13.40;37.95
34658;BME280;20865;43.312;27.152;2023-04-07T05:23:30;100386.39;;;13.44;37.95
34658;BME280;20865;43.312;27.152;2023-04-07T05:25:56;100396.02;;;13.50;37.47
34658;BME280;20865;43.312;27.152;2023-04-07T05:28:23;100394.67;;;13.50;37.25
34658;BME280;20865;43.312;27.152;2023-04-07T05:30:50;100391.08;;;13.39;37.35
34658;BME280;20865;43.312;27.152;2023-04-07T05:33:19;100397.00;;;13.47;37.33
34658;BME280;20865;43.312;27.152;2023-04-07T05:35:45;100393.33;;;13.50;37.37
34658;BME280;20865;43.312;27.152;2023-04-07T05:38:12;100396.41;;;13.51;37.57
34658;BME280;20865;43.312;27.152;2023-04-07T05:40:41;100388.59;;;13.56;37.32
34658;BME280;20865;43.312;27.152;2023-04-07T05:43:08;100393.80;;;13.59;37.48
34658;BME280;20865;43.312;27.152;2023-04-07T05:45:34;100389.61;;;13.64;37.03
34658;BME280;20865;43.312;27.152;2023-04-07T05:48:01;100391.34;;;13.65;37.21
34658;BME280;20865;43.312;27.152;2023-04-07T05:50:28;100382.77;;;13.67;37.39
34658;BME280;20865;43.312;27.152;2023-04-07T05:52:55;100392.32;;;13.74;37.11
34658;BME280;20865;43.312;27.152;2023-04-07T05:55:22;100391.25;;;13.78;36.88
34658;BME280;20865;43.312;27.152;2023-04-07T05:57:49;100392.66;;;13.87;36.55
34658;BME280;20865;43.312;27.152;2023-04-07T06:00:16;100391.06;;;13.93;36.95
34658;BME280;20865;43.312;27.152;2023-04-07T06:02:44;100396.53;;;14.02;36.76
34658;BME280;20865;43.312;27.152;2023-04-07T06:05:11;100391.69;;;14.10;36.55
34658;BME280;20865;43.312;27.152;2023-04-07T06:07:38;100399.97;;;14.16;36.10
34658;BME280;20865;43.312;27.152;2023-04-07T06:10:05;100402.31;;;14.23;35.67
34658;BME280;20865;43.312;27.152;2023-04-07T06:12:32;100398.47;;;14.29;35.66
34658;BME280;20865;43.312;27.152;2023-04-07T06:14:59;100405.75;;;14.37;35.62
34658;BME280;20865;43.312;27.152;2023-04-07T06:17:28;100406.80;;;14.43;34.99
34658;BME280;20865;43.312;27.152;2023-04-07T06:19:54;100405.27;;;14.48;35.23
34658;BME280;20865;43.312;27.152;2023-04-07T06:22:21;100410.41;;;14.54;35.45
34658;BME280;20865;43.312;27.152;2023-04-07T06:24:48;100412.33;;;14.61;35.03
34658;BME280;20865;43.312;27.152;2023-04-07T06:27:15;100414.75;;;14.67;34.97
34658;BME280;20865;43.312;27.152;2023-04-07T06:29:41;100413.74;;;14.69;35.01
34658;BME280;20865;43.312;27.152;2023-04-07T06:32:08;100419.24;;;14.76;34.79
34658;BME280;20865;43.312;27.152;2023-04-07T06:34:35;100418.16;;;14.81;34.94
34658;BME280;20865;43.312;27.152;2023-04-07T06:37:02;100423.79;;;14.85;35.14
34658;BME280;20865;43.312;27.152;2023-04-07T06:39:30;100418.13;;;14.91;34.51
34658;BME280;20865;43.312;27.152;2023-04-07T06:41:56;100423.77;;;14.95;34.89
34658;BME280;20865;43.312;27.152;2023-04-07T06:44:23;100417.86;;;14.97;34.11
34658;BME280;20865;43.312;27.152;2023-04-07T06:46:50;100419.69;;;14.96;34.02
34658;BME280;20865;43.312;27.152;2023-04-07T06:49:18;100427.78;;;15.05;34.25
34658;BME280;20865;43.312;27.152;2023-04-07T06:51:45;100433.84;;;15.10;34.12
34658;BME280;20865;43.312;27.152;2023-04-07T06:54:12;100431.02;;;15.13;34.25
34658;BME280;20865;43.312;27.152;2023-04-07T06:56:41;100430.70;;;15.19;34.47
34658;BME280;20865;43.312;27.152;2023-04-07T06:59:08;100432.30;;;15.23;32.04
34658;BME280;20865;43.312;27.152;2023-04-07T07:01:35;100428.92;;;15.29;31.51
34658;BME280;20865;43.312;27.152;2023-04-07T07:04:02;100426.09;;;15.32;32.19
34658;BME280;20865;43.312;27.152;2023-04-07T07:06:30;100434.81;;;15.37;32.63
34658;BME280;20865;43.312;27.152;2023-04-07T07:08:57;100439.09;;;15.41;33.48
34658;BME280;20865;43.312;27.152;2023-04-07T07:11:25;100446.55;;;15.44;32.66
34658;BME280;20865;43.312;27.152;2023-04-07T07:13:52;100454.37;;;15.40;32.30
34658;BME280;20865;43.312;27.152;2023-04-07T07:16:18;100452.83;;;15.45;31.38
34658;BME280;20865;43.312;27.152;2023-04-07T07:18:47;100457.27;;;15.46;31.00
34658;BME280;20865;43.312;27.152;2023-04-07T07:21:14;100456.50;;;15.53;31.04
34658;BME280;20865;43.312;27.152;2023-04-07T07:23:41;100457.75;;;15.54;31.44
34658;BME280;20865;43.312;27.152;2023-04-07T07:26:07;100460.78;;;15.57;31.15
34658;BME280;20865;43.312;27.152;2023-04-07T07:28:34;100467.77;;;15.61;31.30
34658;BME280;20865;43.312;27.152;2023-04-07T07:31:10;100458.28;;;15.62;30.52
34658;BME280;20865;43.312;27.152;2023-04-07T07:33:41;100464.34;;;15.67;30.24
34658;BME280;20865;43.312;27.152;2023-04-07T07:36:10;100458.80;;;15.70;30.79
34658;BME280;20865;43.312;27.152;2023-04-07T07:38:37;100470.20;;;15.67;29.73
34658;BME280;20865;43.312;27.152;2023-04-07T07:41:05;100466.41;;;15.71;30.09
34658;BME280;20865;43.312;27.152;2023-04-07T07:43:32;100467.70;;;15.73;30.64
34658;BME280;20865;43.312;27.152;2023-04-07T07:45:59;100468.23;;;15.79;31.29
34658;BME280;20865;43.312;27.152;2023-04-07T07:48:26;100474.58;;;15.78;30.48
34658;BME280;20865;43.312;27.152;2023-04-07T07:50:53;100471.83;;;15.80;30.64
34658;BME280;20865;43.312;27.152;2023-04-07T07:53:21;100473.58;;;15.89;30.21
34658;BME280;20865;43.312;27.152;2023-04-07T07:55:48;100469.72;;;15.95;30.10
34658;BME280;20865;43.312;27.152;2023-04-07T07:58:15;100471.55;;;16.03;30.31
34658;BME280;20865;43.312;27.152;2023-04-07T08:00:42;100478.94;;;16.08;29.51
34658;BME280;20865;43.312;27.152;2023-04-07T08:03:09;100480.29;;;16.17;29.11
34658;BME280;20865;43.312;27.152;2023-04-07T08:05:36;100474.75;;;16.20;30.13
34658;BME280;20865;43.312;27.152;2023-04-07T08:08:03;100470.66;;;16.39;30.38
34658;BME280;20865;43.312;27.152;2023-04-07T08:10:29;100481.18;;;16.52;30.34
34658;BME280;20865;43.312;27.152;2023-04-07T08:12:57;100474.06;;;16.60;28.16
34658;BME280;20865;43.312;27.152;2023-04-07T08:15:23;100472.30;;;16.67;27.50
34658;BME280;20865;43.312;27.152;2023-04-07T08:17:51;100474.37;;;16.54;26.49
34658;BME280;20865;43.312;27.152;2023-04-07T08:20:18;100481.17;;;16.70;26.98
34658;BME280;20865;43.312;27.152;2023-04-07T08:22:45;100484.13;;;16.74;26.79
34658;BME280;20865;43.312;27.152;2023-04-07T08:25:12;100483.05;;;16.78;26.42
34658;BME280;20865;43.312;27.152;2023-04-07T08:27:39;100480.98;;;16.74;26.30
34658;BME280;20865;43.312;27.152;2023-04-07T08:30:06;100480.83;;;16.77;26.66
34658;BME280;20865;43.312;27.152;2023-04-07T08:32:39;100479.70;;;16.81;27.25
34658;BME280;20865;43.312;27.152;2023-04-07T08:35:01;100482.53;;;16.87;27.15
34658;BME280;20865;43.312;27.152;2023-04-07T08:37:28;100481.02;;;16.99;27.75
34658;BME280;20865;43.312;27.152;2023-04-07T08:39:55;100478.84;;;17.14;27.82
34658;BME280;20865;43.312;27.152;2023-04-07T08:42:22;100482.78;;;17.24;28.09
34658;BME280;20865;43.312;27.152;2023-04-07T08:44:50;100485.05;;;17.32;26.71
34658;BME280;20865;43.312;27.152;2023-04-07T08:47:18;100484.17;;;17.40;27.10
34658;BME280;20865;43.312;27.152;2023-04-07T08:49:45;100489.14;;;17.48;26.75
34658;BME280;20865;43.312;27.152;2023-04-07T08:52:14;100483.41;;;17.54;26.51
34658;BME280;20865;43.312;27.152;2023-04-07T08:54:41;100479.39;;;17.61;25.52
34658;BME280;20865;43.312;27.152;2023-04-07T08:57:08;100488.61;;;17.57;25.29
34658;BME280;20865;43.312;27.152;2023-04-07T08:59:36;100488.17;;;17.49;25.04
34658;BME280;20865;43.312;27.152;2023-04-07T09:02:04;100487.63;;;17.51;25.62
34658;BME280;20865;43.312;27.152;2023-04-07T09:04:31;100493.26;;;17.46;25.22
34658;BME280;20865;43.312;27.152;2023-04-07T09:07:00;100494.16;;;17.13;25.33
34658;BME280;20865;43.312;27.152;2023-04-07T09:09:26;100486.66;;;17.27;25.80
34658;BME280;20865;43.312;27.152;2023-04-07T09:11:53;100490.39;;;17.25;25.85
34658;BME280;20865;43.312;27.152;2023-04-07T09:14:20;100492.11;;;17.10;25.87
34658;BME280;20865;43.312;27.152;2023-04-07T09:16:47;100483.84;;;17.13;25.83
34658;BME280;20865;43.312;27.152;2023-04-07T09:19:15;100496.16;;;17.10;26.18
34658;BME280;20865;43.312;27.152;2023-04-07T09:21:48;100486.92;;;17.23;26.65
34658;BME280;20865;43.312;27.152;2023-04-07T09:24:21;100487.53;;;17.28;26.77
34658;BME280;20865;43.312;27.152;2023-04-07T09:26:48;100489.36;;;17.27;27.19
34658;BME280;20865;43.312;27.152;2023-04-07T09:29:19;100490.38;;;17.33;26.81
34658;BME280;20865;43.312;27.152;2023-04-07T09:31:49;100492.98;;;17.35;27.23
34658;BME280;20865;43.312;27.152;2023-04-07T09:34:24;100493.47;;;17.34;26.75
34658;BME280;20865;43.312;27.152;2023-04-07T09:36:50;100496.00;;;17.37;27.14
34658;BME280;20865;43.312;27.152;2023-04-07T09:39:17;100498.38;;;17.35;26.92
34658;BME280;20865;43.312;27.152;2023-04-07T09:41:44;100499.57;;;17.38;26.59
34658;BME280;20865;43.312;27.152;2023-04-07T09:44:11;100499.79;;;17.42;26.87
34658;BME280;20865;43.312;27.152;2023-04-07T09:46:52;100497.95;;;17.43;25.76
34658;BME280;20865;43.312;27.152;2023-04-07T09:49:15;100493.84;;;17.44;25.57
34658;BME280;20865;43.312;27.152;2023-04-07T09:51:57;100499.67;;;17.52;27.08
34658;BME280;20865;43.312;27.152;2023-04-07T09:54:35;100496.48;;;17.53;27.05
34658;BME280;20865;43.312;27.152;2023-04-07T09:56:52;100496.59;;;17.51;27.03
34658;BME280;20865;43.312;27.152;2023-04-07T09:59:20;100492.38;;;17.54;25.44
34658;BME280;20865;43.312;27.152;2023-04-07T10:01:47;100487.36;;;17.55;25.53
34658;BME280;20865;43.312;27.152;2023-04-07T10:04:13;100497.77;;;17.54;25.50
34658;BME280;20865;43.312;27.152;2023-04-07T10:06:42;100495.77;;;17.58;26.04
34658;BME280;20865;43.312;27.152;2023-04-07T10:09:09;100497.47;;;17.19;25.41
34658;BME280;20865;43.312;27.152;2023-04-07T10:11:36;100495.19;;;17.20;25.40
34658;BME280;20865;43.312;27.152;2023-04-07T10:14:03;100500.81;;;17.24;25.64
34658;BME280;20865;43.312;27.152;2023-04-07T10:16:30;100496.81;;;17.31;25.88
34658;BME280;20865;43.312;27.152;2023-04-07T10:18:57;100505.77;;;17.16;25.37
34658;BME280;20865;43.312;27.152;2023-04-07T10:21:24;100494.98;;;17.31;25.56
34658;BME280;20865;43.312;27.152;2023-04-07T10:23:56;100502.66;;;17.39;25.63
34658;BME280;20865;43.312;27.152;2023-04-07T10:26:25;100498.42;;;17.51;25.61
34658;BME280;20865;43.312;27.152;2023-04-07T10:28:52;100498.16;;;17.55;25.45
34658;BME280;20865;43.312;27.152;2023-04-07T10:31:20;100496.64;;;17.58;25.97
34658;BME280;20865;43.312;27.152;2023-04-07T10:36:17;100502.69;;;17.71;25.72
34658;BME280;20865;43.312;27.152;2023-04-07T10:41:40;100496.64;;;17.83;25.29
34658;BME280;20865;43.312;27.152;2023-04-07T10:44:02;100499.90;;;17.97;25.83
34658;BME280;20865;43.312;27.152;2023-04-07T10:49:17;100497.81;;;18.25;24.94
34658;BME280;20865;43.312;27.152;2023-04-07T10:52:20;100494.48;;;18.20;24.82
34658;BME280;20865;43.312;27.152;2023-04-07T10:54:18;100492.05;;;18.31;24.45
34658;BME280;20865;43.312;27.152;2023-04-07T10:59:27;100482.88;;;18.41;25.93
34658;BME280;20865;43.312;27.152;2023-04-07T11:04:41;100480.20;;;18.48;24.36
34658;BME280;20865;43.312;27.152;2023-04-07T11:07:09;100483.67;;;18.43;23.92
34658;BME280;20865;43.312;27.152;2023-04-07T11:09:36;100482.30;;;18.36;24.35
34658;BME280;20865;43.312;27.152;2023-04-07T11:12:03;100479.22;;;18.35;24.84
34658;BME280;20865;43.312;27.152;2023-04-07T11:14:32;100482.69;;;18.37;24.62
34658;BME280;20865;43.312;27.152;2023-04-07T11:17:00;100483.45;;;18.31;24.52
34658;BME280;20865;43.312;27.152;2023-04-07T11:19:28;100476.79;;;18.37;24.34
34658;BME280;20865;43.312;27.152;2023-04-07T11:22:18;100479.13;;;18.43;25.32
34658;BME280;20865;43.312;27.152;2023-04-07T11:24:31;100475.02;;;18.52;24.62
34658;BME280;20865;43.312;27.152;2023-04-07T11:26:58;100470.70;;;18.71;23.84
34658;BME280;20865;43.312;27.152;2023-04-07T11:29:29;100476.11;;;18.71;23.79
34658;BME280;20865;43.312;27.152;2023-04-07T11:31:57;100472.97;;;18.86;24.38
34658;BME280;20865;43.312;27.152;2023-04-07T11:34:30;100477.05;;;19.00;23.75
34658;BME280;20865;43.312;27.152;2023-04-07T11:36:57;100471.26;;;19.13;24.06
34658;BME280;20865;43.312;27.152;2023-04-07T11:39:26;100477.16;;;19.13;23.86
34658;BME280;20865;43.312;27.152;2023-04-07T11:41:55;100464.22;;;19.18;23.25
34658;BME280;20865;43.312;27.152;2023-04-07T11:44:22;100463.92;;;19.22;24.09
34658;BME280;20865;43.312;27.152;2023-04-07T11:46:54;100464.19;;;19.46;23.91
34658;BME280;20865;43.312;27.152;2023-04-07T11:49:21;100459.33;;;19.66;24.41
34658;BME280;20865;43.312;27.152;2023-04-07T11:51:55;100458.55;;;19.78;23.72
34658;BME280;20865;43.312;27.152;2023-04-07T11:54:17;100460.72;;;19.93;23.83
34658;BME280;20865;43.312;27.152;2023-04-07T11:56:44;100466.72;;;19.98;23.53
34658;BME280;20865;43.312;27.152;2023-04-07T11:59:24;100459.28;;;19.94;22.83
34658;BME280;20865;43.312;27.152;2023-04-07T12:01:48;100457.23;;;19.98;22.67
34658;BME280;20865;43.312;27.152;2023-04-07T12:04:15;100456.03;;;19.75;23.19
34658;BME280;20865;43.312;27.152;2023-04-07T12:06:43;100452.30;;;19.63;23.26
34658;BME280;20865;43.312;27.152;2023-04-07T12:09:26;100450.99;;;19.62;23.92
34658;BME280;20865;43.312;27.152;2023-04-07T12:11:54;100453.34;;;19.68;23.54
34658;BME280;20865;43.312;27.152;2023-04-07T12:14:22;100454.19;;;19.75;23.69
34658;BME280;20865;43.312;27.152;2023-04-07T12:16:49;100449.61;;;19.83;23.77
34658;BME280;20865;43.312;27.152;2023-04-07T12:19:16;100455.50;;;19.90;23.11
34658;BME280;20865;43.312;27.152;2023-04-07T12:21:43;100457.94;;;19.80;22.86
34658;BME280;20865;43.312;27.152;2023-04-07T12:24:09;100455.39;;;19.98;23.05
34658;BME280;20865;43.312;27.152;2023-04-07T12:26:36;100452.62;;;20.13;24.08
34658;BME280;20865;43.312;27.152;2023-04-07T12:29:03;100447.94;;;20.15;23.12
34658;BME280;20865;43.312;27.152;2023-04-07T12:31:30;100447.94;;;20.15;23.23
34658;BME280;20865;43.312;27.152;2023-04-07T12:33:57;100448.17;;;20.12;23.86
34658;BME280;20865;43.312;27.152;2023-04-07T12:36:24;100447.53;;;20.21;23.68
34658;BME280;20865;43.312;27.152;2023-04-07T12:38:55;100446.03;;;20.10;23.77
34658;BME280;20865;43.312;27.152;2023-04-07T12:41:23;100443.56;;;19.99;24.27
34658;BME280;20865;43.312;27.152;2023-04-07T12:43:51;100440.78;;;20.14;24.43
34658;BME280;20865;43.312;27.152;2023-04-07T12:46:18;100443.53;;;20.07;23.72
34658;BME280;20865;43.312;27.152;2023-04-07T12:48:45;100447.22;;;20.06;24.06
34658;BME280;20865;43.312;27.152;2023-04-07T12:51:12;100438.14;;;19.99;23.77
34658;BME280;20865;43.312;27.152;2023-04-07T12:53:39;100440.76;;;19.94;23.91
34658;BME280;20865;43.312;27.152;2023-04-07T12:56:06;100442.11;;;19.94;24.59
34658;BME280;20865;43.312;27.152;2023-04-07T12:58:33;100436.41;;;19.98;23.48